Time;durP1;ratioP1;P1;durP2;ratioP2;P2;SDS_P1;SDS_P2;PMS_P1;PMS_P2;Temp;Humidity;BMP_temperature;BMP_pressure;BME280_temperature;BME280_humidity;BME280_pressure;Samples;Min_cycle;Max_cycle;Signal;HPM_P1;HPM_P2
2024/03/07 00:00:43;;;;;;;27.63;11.82;;;;;;;5.12;73.80;100957.16;4985623;28;20050;-43
2024/03/07 00:03:10;;;;;;;26.05;9.60;;;;;;;5.11;74.50;100949.38;4981965;28;21604;-46
2024/03/07 00:05:37;;;;;;;28.08;11.00;;;;;;;5.07;74.13;100943.25;4986387;28;20181;-49
2024/03/07 00:08:04;;;;;;;23.73;10.88;;;;;;;5.06;74.04;100944.06;4983759;28;20050;-47
2024/03/07 00:10:31;;;;;;;32.65;12.10;;;;;;;5.04;74.44;100947.41;4981418;28;20056;-44
2024/03/07 00:12:58;;;;;;;30.05;11.57;;;;;;;5.00;74.57;100941.31;4983373;28;20054;-47
2024/03/07 00:15:30;;;;;;;26.35;11.85;;;;;;;4.97;74.86;100946.34;4985559;28;20058;-47
2024/03/07 00:17:56;;;;;;;26.25;11.23;;;;;;;4.95;74.82;100947.97;4987752;28;20054;-43
2024/03/07 00:20:23;;;;;;;28.95;11.32;;;;;;;4.93;75.15;100952.19;4985547;28;20050;-47
2024/03/07 00:22:52;;;;;;;29.52;12.07;;;;;;;4.91;74.41;100946.13;4984773;28;20047;-45
2024/03/07 00:25:19;;;;;;;30.55;11.63;;;;;;;4.88;74.47;100941.75;4980783;28;20140;-50
2024/03/07 00:27:47;;;;;;;27.13;11.18;;;;;;;4.87;75.22;100945.16;4989886;28;20046;-46
2024/03/07 00:30:18;;;;;;;30.60;11.82;;;;;;;4.84;75.26;100945.91;4986705;28;20102;-49
2024/03/07 00:32:47;;;;;;;29.40;11.05;;;;;;;4.82;74.92;100949.22;4982540;28;20165;-49
2024/03/07 00:35:14;;;;;;;25.58;10.85;;;;;;;4.79;74.60;100942.28;4987451;28;20077;-46
2024/03/07 00:37:41;;;;;;;31.13;11.68;;;;;;;4.75;75.02;100945.56;4983017;28;20046;-47
2024/03/07 00:40:10;;;;;;;27.67;11.00;;;;;;;4.73;74.39;100947.22;4987189;28;20050;-45
2024/03/07 00:42:37;;;;;;;24.38;11.90;;;;;;;4.70;74.41;100945.41;4989615;28;20049;-48
2024/03/07 00:45:05;;;;;;;27.27;10.82;;;;;;;4.68;74.47;100943.59;4986611;28;20063;-42
2024/03/07 00:47:32;;;;;;;27.25;11.05;;;;;;;4.66;74.34;100951.25;4986756;28;20109;-47
2024/03/07 00:50:00;;;;;;;26.65;9.27;;;;;;;4.63;75.29;100946.88;4986132;28;20763;-47
2024/03/07 00:52:27;;;;;;;25.98;10.73;;;;;;;4.60;75.11;100951.91;4986940;28;20046;-48
2024/03/07 00:54:54;;;;;;;30.42;11.30;;;;;;;4.57;74.92;100946.69;4988185;28;20061;-44
2024/03/07 00:57:20;;;;;;;31.27;10.07;;;;;;;4.54;74.51;100950.81;4989627;28;20048;-46
2024/03/07 00:59:48;;;;;;;27.35;10.20;;;;;;;4.50;74.84;100947.25;4988572;28;20078;-47
2024/03/07 01:02:17;;;;;;;26.25;10.88;;;;;;;4.48;75.19;100957.47;4988663;28;20061;-45
2024/03/07 01:04:46;;;;;;;28.25;11.30;;;;;;;4.44;74.77;100953.03;4983425;28;20136;-45
2024/03/07 01:07:12;;;;;;;28.10;11.20;;;;;;;4.41;74.59;100954.59;4988997;28;20057;-44
2024/03/07 01:09:39;;;;;;;30.25;12.10;;;;;;;4.40;75.16;100958.00;4985632;28;20066;-44
2024/03/07 01:12:06;;;;;;;34.45;12.23;;;;;;;4.39;74.89;100956.25;4985010;28;20061;-44
2024/03/07 01:14:33;;;;;;;28.77;12.85;;;;;;;4.41;75.60;100952.03;4987611;28;20065;-49
2024/03/07 01:17:00;;;;;;;27.90;10.90;;;;;;;4.43;75.26;100947.84;4986392;28;20141;-43
2024/03/07 01:19:27;;;;;;;27.73;11.32;;;;;;;4.47;74.98;100952.28;4987238;28;20077;-44
2024/03/07 01:21:53;;;;;;;41.65;13.10;;;;;;;4.50;75.21;100949.84;4990279;28;20046;-45
2024/03/07 01:24:20;;;;;;;41.33;12.60;;;;;;;4.55;75.30;100953.44;4987535;28;20507;-43
2024/03/07 01:26:47;;;;;;;38.30;12.75;;;;;;;4.59;75.26;100950.16;4986195;28;20054;-44
2024/03/07 01:29:15;;;;;;;63.88;12.70;;;;;;;4.62;75.14;100949.38;4989892;28;20061;-47
2024/03/07 01:31:42;;;;;;;56.35;12.40;;;;;;;4.66;75.27;100955.53;4990642;28;20065;-47
2024/03/07 01:34:09;;;;;;;64.10;11.73;;;;;;;4.67;75.68;100953.00;4989712;28;20393;-44
2024/03/07 01:36:38;;;;;;;48.55;12.90;;;;;;;4.70;75.77;100952.25;4990930;28;20540;-46
2024/03/07 01:39:05;;;;;;;68.53;13.15;;;;;;;4.74;75.96;100954.09;4986859;28;20054;-45
2024/03/07 01:41:34;;;;;;;122.32;15.10;;;;;;;4.77;76.29;100954.22;4986036;28;20050;-43
2024/03/07 01:44:01;;;;;;;101.72;14.18;;;;;;;4.78;76.19;100955.97;4989460;28;20046;-46
2024/03/07 01:46:29;;;;;;;51.15;11.77;;;;;;;4.79;75.97;100951.72;4990414;28;20721;-45
2024/03/07 01:48:56;;;;;;;42.22;13.43;;;;;;;4.83;75.66;100953.56;4986024;28;20110;-47
2024/03/07 01:51:22;;;;;;;41.53;12.35;;;;;;;4.84;76.48;100958.75;4990617;28;20054;-47
2024/03/07 01:53:50;;;;;;;99.10;14.27;;;;;;;4.88;76.37;100952.91;4988980;28;20054;-43
2024/03/07 01:56:18;;;;;;;81.22;14.95;;;;;;;4.87;76.71;100951.13;4982729;28;20124;-46
2024/03/07 01:58:47;;;;;;;56.45;9.13;;;;;;;4.85;76.94;100947.66;4988206;28;20661;-43
2024/03/07 02:01:15;;;;;;;50.25;9.27;;;;;;;4.76;78.49;100952.44;4988332;28;20046;-46
2024/03/07 02:03:42;;;;;;;69.50;10.75;;;;;;;4.75;78.01;100951.59;4989777;28;20090;-42
2024/03/07 02:06:10;;;;;;;85.65;12.10;;;;;;;4.77;77.74;100943.94;4986394;28;20451;-46
2024/03/07 02:08:36;;;;;;;87.03;12.95;;;;;;;4.78;77.48;100943.13;4986688;28;20064;-42
2024/03/07 02:11:03;;;;;;;51.97;10.80;;;;;;;4.77;78.51;100946.50;4986498;28;20093;-45
2024/03/07 02:13:31;;;;;;;65.78;12.20;;;;;;;4.78;78.03;100948.25;4989088;28;20053;-46
2024/03/07 02:15:58;;;;;;;52.83;10.30;;;;;;;4.77;78.22;100938.81;4987073;28;20054;-43
2024/03/07 02:18:26;;;;;;;38.53;9.65;;;;;;;4.78;77.87;100938.00;4983548;28;20065;-43
2024/03/07 02:20:54;;;;;;;33.47;8.25;;;;;;;4.73;78.85;100939.53;4987209;28;20054;-47
2024/03/07 02:23:21;;;;;;;42.08;8.90;;;;;;;4.67;79.80;100944.44;4984301;28;20049;-44
2024/03/07 02:25:48;;;;;;;39.17;11.32;;;;;;;4.68;79.27;100933.34;4984369;28;20559;-46
2024/03/07 02:28:14;;;;;;;57.83;10.55;;;;;;;4.72;79.07;100935.19;4985323;28;20050;-46
2024/03/07 02:30:41;;;;;;;47.17;10.27;;;;;;;4.73;78.81;100942.09;4988615;28;20057;-46
2024/03/07 02:33:09;;;;;;;48.83;10.63;;;;;;;4.74;78.90;100938.69;4987136;28;20093;-45
2024/03/07 02:35:36;;;;;;;27.55;9.10;;;;;;;4.77;78.33;100933.69;4987031;28;20042;-43
2024/03/07 02:38:04;;;;;;;35.97;9.95;;;;;;;4.80;78.74;100941.47;4987135;28;20054;-47
2024/03/07 02:40:31;;;;;;;67.18;10.93;;;;;;;4.75;79.41;100935.31;4984411;28;20050;-45
2024/03/07 02:42:58;;;;;;;37.20;6.82;;;;;;;4.63;80.20;100936.63;4986690;28;20049;-45
2024/03/07 02:45:25;;;;;;;49.30;8.00;;;;;;;4.69;79.52;100930.81;4987630;28;20050;-47
2024/03/07 02:47:53;;;;;;;39.38;8.73;;;;;;;4.73;78.79;100926.69;4986837;28;20054;-49
2024/03/07 02:50:22;;;;;;;37.67;9.43;;;;;;;4.76;79.02;100927.66;4984917;28;20054;-44
2024/03/07 02:52:49;;;;;;;63.03;9.50;;;;;;;4.80;79.67;100928.63;4987527;28;20144;-47
2024/03/07 02:55:16;;;;;;;46.17;8.02;;;;;;;4.84;79.06;100925.38;4982760;28;20054;-50
2024/03/07 02:57:43;;;;;;;84.22;12.13;;;;;;;4.79;79.65;100926.91;4981860;28;21616;-46
2024/03/07 03:00:19;;;;;;;38.78;8.57;;;;;;;4.84;79.96;100927.06;4981496;28;20046;-47
2024/03/07 03:02:47;;;;;;;55.88;9.23;;;;;;;4.87;79.36;100930.59;4987860;28;20054;-47
2024/03/07 03:05:15;;;;;;;60.67;10.15;;;;;;;4.88;79.45;100927.22;4980385;28;20109;-46
2024/03/07 03:07:42;;;;;;;82.25;11.57;;;;;;;4.93;79.21;100934.22;4975317;28;20055;-43
2024/03/07 03:10:09;;;;;;;56.17;10.27;;;;;;;4.94;78.76;100925.69;4981216;28;20059;-43
2024/03/07 03:12:38;;;;;;;52.25;10.68;;;;;;;4.95;79.22;100918.03;4978092;28;20054;-44
2024/03/07 03:15:07;;;;;;;38.20;9.98;;;;;;;4.84;80.66;100915.13;4985657;28;20045;-44
2024/03/07 03:17:35;;;;;;;42.63;9.43;;;;;;;4.82;80.53;100916.75;4981772;28;20054;-46
2024/03/07 03:20:09;;;;;;;33.28;10.68;;;;;;;4.79;81.20;100921.75;4975539;28;20583;-44
2024/03/07 03:22:36;;;;;;;60.45;10.55;;;;;;;4.77;81.06;100915.72;4982161;28;20078;-47
2024/03/07 03:25:03;;;;;;;78.07;11.60;;;;;;;4.80;81.90;100910.66;4980904;28;20073;-42
2024/03/07 03:27:30;;;;;;;35.90;9.60;;;;;;;4.79;81.92;100915.78;4982385;28;20053;-47
2024/03/07 03:29:57;;;;;;;43.05;9.27;;;;;;;4.78;82.33;100909.75;4977811;28;20066;-46
2024/03/07 03:32:23;;;;;;;80.13;12.65;;;;;;;4.82;81.76;100911.59;4977959;28;20145;-44
2024/03/07 03:34:52;;;;;;;71.85;12.27;;;;;;;4.82;81.40;100914.19;4979361;28;20082;-45
2024/03/07 03:37:18;;;;;;;50.28;11.85;;;;;;;4.85;81.31;100909.16;4973378;28;20054;-44
2024/03/07 03:39:47;;;;;;;52.85;9.80;;;;;;;4.89;81.30;100911.00;4976532;28;20054;-42
2024/03/07 03:42:13;;;;;;;43.95;11.52;;;;;;;4.93;80.83;100903.41;4972123;28;20061;-46
2024/03/07 03:44:42;;;;;;;25.50;8.02;;;;;;;4.82;81.90;100911.59;4977443;28;20472;-44
2024/03/07 03:47:09;;;;;;;41.72;13.27;;;;;;;4.79;81.47;100903.78;4974750;28;20074;-43
2024/03/07 03:49:35;;;;;;;40.05;10.95;;;;;;;4.78;82.13;100902.06;4984995;28;20419;-44
2024/03/07 03:52:02;;;;;;;27.83;9.85;;;;;;;4.60;82.71;100910.84;4976727;28;20054;-46
2024/03/07 03:54:29;;;;;;;31.42;10.60;;;;;;;4.52;83.49;100896.88;4990559;28;20046;-43
2024/03/07 03:56:58;;;;;;;35.13;10.63;;;;;;;4.45;84.06;100895.78;4976963;28;20403;-45
2024/03/07 03:59:25;;;;;;;29.00;10.10;;;;;;;4.39;83.50;100900.66;4983970;28;20134;-45
2024/03/07 04:01:52;;;;;;;37.13;11.15;;;;;;;4.48;83.70;100905.28;4976015;28;20047;-45
2024/03/07 04:04:18;;;;;;;36.33;9.95;;;;;;;4.51;83.41;100905.38;4982242;28;20393;-43
2024/03/07 04:06:45;;;;;;;37.95;12.10;;;;;;;4.65;82.80;100913.56;4977251;28;20054;-44
2024/03/07 04:09:14;;;;;;;34.22;10.40;;;;;;;4.66;82.61;100911.91;4976808;28;21224;-45
2024/03/07 04:11:40;;;;;;;40.00;11.75;;;;;;;4.73;82.02;100916.44;4979630;28;20140;-45
2024/03/07 04:14:08;;;;;;;39.60;11.45;;;;;;;4.67;82.49;100916.19;4982253;28;20141;-45
2024/03/07 04:16:35;;;;;;;40.05;11.35;;;;;;;4.46;83.94;100912.06;4989074;28;20057;-44
2024/03/07 04:19:01;;;;;;;27.45;9.77;;;;;;;4.44;83.64;100908.53;4986721;28;20045;-46
2024/03/07 04:21:28;;;;;;;35.10;11.10;;;;;;;4.39;84.43;100907.53;4982694;28;20077;-44
2024/03/07 04:23:54;;;;;;;32.63;12.02;;;;;;;4.35;84.67;100909.97;4985379;28;20062;-49
2024/03/07 04:26:21;;;;;;;39.22;11.07;;;;;;;4.55;83.27;100917.50;4986302;28;20129;-45
2024/03/07 04:28:48;;;;;;;55.88;12.13;;;;;;;4.66;82.97;100917.03;4984370;28;20054;-46
2024/03/07 04:31:18;;;;;;;41.88;10.50;;;;;;;4.72;82.47;100914.66;4982470;28;20065;-44
2024/03/07 04:33:46;;;;;;;35.30;11.00;;;;;;;4.73;82.06;100911.28;4983361;28;20059;-45
2024/03/07 04:36:14;;;;;;;29.73;9.90;;;;;;;4.70;82.55;100911.19;4987553;28;20096;-46
2024/03/07 04:38:44;;;;;;;25.05;9.95;;;;;;;4.40;83.22;100916.94;4985111;28;20050;-42
2024/03/07 04:41:12;;;;;;;32.67;10.05;;;;;;;4.37;83.46;100912.59;4984390;28;20120;-46
2024/03/07 04:43:39;;;;;;;38.17;12.73;;;;;;;4.36;83.88;100916.84;4980936;28;20940;-46
2024/03/07 04:46:06;;;;;;;33.80;11.63;;;;;;;4.37;83.82;100923.72;4985481;28;20058;-42
2024/03/07 04:48:33;;;;;;;34.90;10.88;;;;;;;4.34;83.89;100923.63;4983298;28;20459;-47
2024/03/07 04:51:00;;;;;;;36.30;10.10;;;;;;;4.39;83.87;100926.31;4968075;28;20055;-46
2024/03/07 04:53:27;;;;;;;35.60;11.68;;;;;;;4.49;82.69;100914.72;4980616;28;20519;-41
2024/03/07 04:55:54;;;;;;;38.35;12.52;;;;;;;4.56;82.91;100916.69;4971855;28;20169;-44
2024/03/07 04:58:21;;;;;;;33.20;11.57;;;;;;;4.64;81.96;100916.97;4983233;28;20069;-44
2024/03/07 05:00:47;;;;;;;35.88;11.68;;;;;;;4.68;82.65;100915.38;4986183;28;20054;-42
2024/03/07 05:03:14;;;;;;;49.10;14.48;;;;;;;4.65;82.55;100925.53;4984086;28;20054;-43
2024/03/07 05:05:42;;;;;;;44.05;10.38;;;;;;;4.66;82.84;100914.47;4986741;28;20051;-42
2024/03/07 05:08:10;;;;;;;25.67;9.57;;;;;;;4.61;83.26;100917.75;4981371;28;20043;-44
2024/03/07 05:10:37;;;;;;;47.97;12.88;;;;;;;4.66;82.34;100919.59;4986961;28;20472;-45
2024/03/07 05:13:06;;;;;;;47.15;13.85;;;;;;;4.73;82.15;100911.28;4977449;28;20481;-43
2024/03/07 05:15:32;;;;;;;36.53;10.90;;;;;;;4.71;82.35;100913.81;4979560;28;20046;-43
2024/03/07 05:17:59;;;;;;;47.83;12.25;;;;;;;4.77;82.23;100920.84;4975556;28;20104;-42
2024/03/07 05:20:28;;;;;;;41.50;12.30;;;;;;;4.78;81.99;100925.16;4986243;28;20533;-42
2024/03/07 05:22:55;;;;;;;46.58;12.70;;;;;;;4.79;82.25;100915.78;4983634;28;20137;-43
2024/03/07 05:25:22;;;;;;;49.42;11.45;;;;;;;4.83;81.26;100923.63;4982358;28;20051;-44
2024/03/07 05:27:50;;;;;;;39.55;10.77;;;;;;;4.85;81.43;100929.69;4976688;28;20050;-43
2024/03/07 05:30:17;;;;;;;42.55;11.45;;;;;;;4.86;81.60;100923.72;4976175;28;20047;-44
2024/03/07 05:32:44;;;;;;;49.47;11.82;;;;;;;4.89;81.03;100923.84;4983952;28;20058;-44
2024/03/07 05:35:11;;;;;;;48.35;12.98;;;;;;;4.93;81.74;100924.81;4980727;28;20055;-47
2024/03/07 05:37:41;;;;;;;50.42;11.55;;;;;;;4.96;81.21;100921.50;4981445;28;20048;-42
2024/03/07 05:40:08;;;;;;;57.60;12.45;;;;;;;4.97;80.62;100920.66;4987021;28;20050;-45
2024/03/07 05:42:35;;;;;;;44.95;12.23;;;;;;;4.98;80.85;100923.28;4978196;28;20566;-44
2024/03/07 05:45:02;;;;;;;37.15;11.57;;;;;;;5.01;81.42;100917.38;4981443;28;20058;-45
2024/03/07 05:47:29;;;;;;;47.03;12.82;;;;;;;5.03;80.40;100915.72;4981574;28;20145;-46
2024/03/07 05:49:57;;;;;;;58.15;13.27;;;;;;;5.04;81.52;100920.06;4976191;28;20054;-44
2024/03/07 05:52:24;;;;;;;43.30;13.18;;;;;;;5.05;80.46;100926.94;4975779;28;20050;-45
2024/03/07 05:54:50;;;;;;;52.88;15.32;;;;;;;5.05;81.35;100918.34;4983671;28;20046;-42
2024/03/07 05:57:18;;;;;;;64.43;14.35;;;;;;;5.01;80.68;100917.38;4984113;28;20054;-44
2024/03/07 05:59:47;;;;;;;44.50;14.23;;;;;;;5.04;81.36;100922.63;4976063;28;20145;-41
2024/03/07 06:02:15;;;;;;;48.75;15.65;;;;;;;5.05;80.98;100928.63;4980378;28;20518;-48
2024/03/07 06:04:43;;;;;;;44.63;13.73;;;;;;;5.06;80.69;100931.25;4994466;28;20062;-45
2024/03/07 06:07:10;;;;;;;53.08;14.35;;;;;;;5.07;81.38;100935.53;4975870;28;20079;-47
2024/03/07 06:09:37;;;;;;;51.75;14.93;;;;;;;5.07;81.15;100927.84;4978413;28;20042;-49
2024/03/07 06:12:08;;;;;;;42.15;14.50;;;;;;;5.10;80.53;100933.09;4977521;28;20058;-44
2024/03/07 06:14:49;;;;;;;53.05;16.48;;;;;;;5.12;81.04;100922.88;4987410;28;20057;-43
2024/03/07 06:17:19;;;;;;;42.50;13.52;;;;;;;5.13;81.00;100932.31;4986656;28;20046;-44
2024/03/07 06:19:47;;;;;;;51.03;13.45;;;;;;;5.14;80.51;100934.94;4987200;28;20393;-43
2024/03/07 06:22:13;;;;;;;52.80;15.02;;;;;;;5.16;80.23;100931.56;4978507;28;20495;-45
2024/03/07 06:24:42;;;;;;;48.72;14.45;;;;;;;5.17;80.40;100933.31;4977432;28;20046;-46
2024/03/07 06:27:16;;;;;;;41.85;14.32;;;;;;;5.14;80.41;100934.09;4983803;28;20147;-45
2024/03/07 06:29:43;;;;;;;46.38;14.20;;;;;;;5.13;81.05;100938.34;4983171;28;20081;-48
2024/03/07 06:32:10;;;;;;;48.28;16.02;;;;;;;5.16;80.60;100936.72;4986344;28;20066;-47
2024/03/07 06:34:38;;;;;;;46.08;13.80;;;;;;;5.17;80.08;100933.31;4984062;28;20470;-50
2024/03/07 06:37:05;;;;;;;35.75;13.52;;;;;;;5.16;80.25;100927.28;4981624;28;20054;-45
2024/03/07 06:39:32;;;;;;;39.92;13.32;;;;;;;5.12;81.12;100931.47;4979774;28;20125;-44
2024/03/07 06:41:59;;;;;;;34.63;12.00;;;;;;;5.08;81.47;100927.03;4975995;28;20051;-45
2024/03/07 06:44:26;;;;;;;39.05;12.85;;;;;;;5.10;81.46;100920.25;4983271;28;20198;-43
2024/03/07 06:46:53;;;;;;;37.08;12.38;;;;;;;5.07;81.21;100922.72;4970459;28;20137;-44
2024/03/07 06:49:21;;;;;;;36.38;13.05;;;;;;;5.08;80.83;100927.03;4977919;28;20050;-47
2024/03/07 06:51:49;;;;;;;39.55;14.13;;;;;;;4.99;81.14;100934.41;4975540;28;20050;-45
2024/03/07 06:54:16;;;;;;;34.15;12.57;;;;;;;4.89;82.46;100935.78;4981001;28;20046;-46
2024/03/07 06:56:44;;;;;;;31.27;11.52;;;;;;;4.91;81.37;100930.72;4978375;28;20093;-44
2024/03/07 06:59:13;;;;;;;25.27;9.20;;;;;;;4.93;81.27;100939.34;4985241;28;20046;-44
2024/03/07 07:01:42;;;;;;;30.98;8.68;;;;;;;4.96;81.42;100936.91;4977953;28;20608;-46
2024/03/07 07:04:09;;;;;;;26.42;9.45;;;;;;;4.94;80.94;100930.81;4979163;28;20050;-46
2024/03/07 07:06:36;;;;;;;27.95;9.20;;;;;;;4.86;81.22;100923.72;4977693;28;20050;-46
2024/03/07 07:09:05;;;;;;;24.52;9.50;;;;;;;4.88;80.70;100927.22;4978557;28;20042;-46
2024/03/07 07:11:32;;;;;;;24.25;9.07;;;;;;;4.83;81.66;100927.91;4980737;28;20496;-42
2024/03/07 07:14:03;;;;;;;22.65;8.40;;;;;;;4.83;81.48;100931.31;4978502;28;20076;-45
2024/03/07 07:16:31;;;;;;;25.42;9.20;;;;;;;4.76;81.72;100931.91;4979472;28;20061;-45
2024/03/07 07:18:57;;;;;;;27.67;9.00;;;;;;;4.62;82.04;100929.75;4980718;28;20046;-44
2024/03/07 07:21:24;;;;;;;25.55;9.55;;;;;;;4.58;82.06;100933.03;4979894;28;20056;-47
2024/03/07 07:23:51;;;;;;;27.35;8.40;;;;;;;4.59;81.84;100929.63;4985294;28;20837;-43
2024/03/07 07:26:18;;;;;;;23.65;8.60;;;;;;;4.67;81.59;100936.72;4983506;28;20054;-45
2024/03/07 07:28:45;;;;;;;34.13;11.15;;;;;;;4.73;81.21;100931.81;4981133;28;20046;-48
2024/03/07 07:31:11;;;;;;;29.92;9.73;;;;;;;4.76;81.84;100931.91;4980866;28;20069;-47
2024/03/07 07:33:39;;;;;;;28.40;8.93;;;;;;;4.83;81.81;100933.03;4983632;28;20046;-46
2024/03/07 07:36:09;;;;;;;24.70;9.82;;;;;;;4.84;81.98;100934.75;4973720;28;20129;-46
2024/03/07 07:38:35;;;;;;;32.33;10.48;;;;;;;4.82;81.77;100927.00;4981003;28;20068;-47
2024/03/07 07:41:02;;;;;;;26.77;10.05;;;;;;;4.86;81.63;100926.28;4974967;28;20046;-49
2024/03/07 07:43:29;;;;;;;23.27;8.95;;;;;;;4.89;81.63;100918.69;4981817;28;20043;-43
2024/03/07 07:46:08;;;;;;;20.33;7.15;;;;;;;4.88;81.54;100922.09;4971685;28;20042;-46
2024/03/07 07:48:35;;;;;;;25.10;8.32;;;;;;;4.91;81.71;100928.16;4986133;28;20046;-45
2024/03/07 07:51:05;;;;;;;24.67;9.40;;;;;;;4.93;80.80;100918.81;4980851;28;20055;-43
2024/03/07 07:53:32;;;;;;;27.35;10.15;;;;;;;4.96;80.18;100921.50;4990845;28;20146;-46
2024/03/07 07:56:01;;;;;;;26.27;9.75;;;;;;;4.99;81.01;100921.56;4988890;28;20143;-43
2024/03/07 07:58:28;;;;;;;27.38;9.35;;;;;;;5.00;80.30;100915.63;4981513;28;20061;-48
2024/03/07 08:00:55;;;;;;;23.75;8.52;;;;;;;5.00;80.39;100925.91;4976367;28;20054;-48
2024/03/07 08:03:22;;;;;;;23.10;8.48;;;;;;;4.93;80.86;100921.38;4977073;28;20050;-43
2024/03/07 08:05:49;;;;;;;24.65;7.93;;;;;;;4.91;80.63;100921.31;4984169;28;20057;-47
2024/03/07 08:08:18;;;;;;;24.00;9.52;;;;;;;4.91;80.24;100920.44;4981053;28;20051;-44
2024/03/07 08:10:47;;;;;;;24.65;8.88;;;;;;;4.83;81.58;100917.63;4965238;28;20059;-44
2024/03/07 08:13:14;;;;;;;17.73;7.50;;;;;;;4.79;80.91;100908.94;4967442;28;20562;-45
2024/03/07 08:15:41;;;;;;;27.73;10.07;;;;;;;4.83;81.18;100908.22;4983731;28;20101;-44
2024/03/07 08:18:08;;;;;;;21.33;9.20;;;;;;;4.84;80.47;100909.97;4984969;28;20081;-42
2024/03/07 08:20:38;;;;;;;28.90;9.32;;;;;;;4.89;81.23;100903.31;4985682;28;20133;-45
2024/03/07 08:23:05;;;;;;;40.33;10.60;;;;;;;4.93;80.49;100904.25;4986101;28;20091;-42
2024/03/07 08:25:32;;;;;;;35.50;9.18;;;;;;;4.94;81.05;100900.00;4979838;28;20058;-45
2024/03/07 08:27:59;;;;;;;17.05;6.78;;;;;;;4.94;81.30;100905.16;4985305;28;20050;-48
2024/03/07 08:30:28;;;;;;;22.02;8.13;;;;;;;4.94;81.45;100905.16;4983905;28;20050;-44
2024/03/07 08:32:56;;;;;;;22.10;8.75;;;;;;;4.89;81.52;100900.72;4985173;28;20534;-43
2024/03/07 08:35:24;;;;;;;24.27;8.50;;;;;;;4.86;80.43;100903.19;4994345;28;20137;-42
2024/03/07 08:37:53;;;;;;;24.30;9.27;;;;;;;4.85;81.56;100906.59;4981274;28;20050;-42
2024/03/07 08:40:23;;;;;;;27.90;9.95;;;;;;;4.76;81.56;100906.25;4987922;28;20141;-45
2024/03/07 08:42:55;;;;;;;28.48;10.45;;;;;;;4.82;81.55;100900.44;4981842;28;20061;-46
2024/03/07 08:45:24;;;;;;;32.65;9.93;;;;;;;4.86;81.36;100898.06;4976910;28;20054;-46
2024/03/07 08:47:54;;;;;;;34.70;9.68;;;;;;;4.86;81.67;100903.19;4984002;28;20059;-45
2024/03/07 08:50:23;;;;;;;26.48;9.70;;;;;;;4.88;81.68;100896.44;4975273;28;20047;-52
2024/03/07 08:52:50;;;;;;;32.35;11.30;;;;;;;4.96;81.72;100898.38;4979835;28;20097;-46
2024/03/07 08:55:20;;;;;;;32.50;10.75;;;;;;;5.01;80.88;100901.97;4983249;28;20145;-44
2024/03/07 08:57:48;;;;;;;32.63;10.02;;;;;;;5.04;81.35;100899.50;4977494;28;20134;-47
2024/03/07 09:00:25;;;;;;;23.55;8.93;;;;;;;5.03;80.60;100895.19;4978596;28;20553;-48
2024/03/07 09:02:57;;;;;;;29.23;10.38;;;;;;;5.04;81.00;100896.94;4980294;28;20081;-45
2024/03/07 09:05:28;;;;;;;33.50;10.18;;;;;;;5.07;81.59;100902.16;4979728;28;20054;-43
2024/03/07 09:07:55;;;;;;;34.00;10.88;;;;;;;5.07;81.82;100891.03;4977820;28;20523;-42
2024/03/07 09:10:25;;;;;;;27.98;9.57;;;;;;;5.11;81.58;100885.19;4987943;28;20574;-44
2024/03/07 09:12:54;;;;;;;36.92;11.43;;;;;;;5.14;80.74;100890.44;4987952;28;20061;-42
2024/03/07 09:15:22;;;;;;;33.17;10.05;;;;;;;5.17;80.80;100897.34;4987926;28;20057;-46
2024/03/07 09:17:51;;;;;;;36.95;12.48;;;;;;;5.17;81.55;100894.78;4980814;28;20066;-45
2024/03/07 09:20:18;;;;;;;32.75;9.90;;;;;;;5.16;81.87;100895.63;4985728;28;20126;-47
2024/03/07 09:22:48;;;;;;;43.00;11.88;;;;;;;5.23;80.91;100892.41;4985217;28;20054;-47
2024/03/07 09:25:18;;;;;;;31.55;11.13;;;;;;;5.20;80.99;100888.03;4985448;28;20137;-48
2024/03/07 09:27:46;;;;;;;30.70;9.38;;;;;;;5.23;81.46;100892.41;4984849;28;20075;-45
2024/03/07 09:30:14;;;;;;;33.25;10.52;;;;;;;5.21;80.73;100891.50;4980696;28;20066;-42
2024/03/07 09:32:42;;;;;;;31.08;11.57;;;;;;;5.19;81.98;100887.97;4984103;28;20055;-48
2024/03/07 09:35:11;;;;;;;28.77;11.13;;;;;;;5.25;81.28;100886.50;4981308;28;20149;-44
2024/03/07 09:37:41;;;;;;;32.75;11.80;;;;;;;5.28;81.35;100888.31;4987227;28;20046;-47
2024/03/07 09:40:11;;;;;;;32.63;10.98;;;;;;;5.29;80.88;100897.75;4980946;28;20050;-47
2024/03/07 09:42:48;;;;;;;31.92;10.43;;;;;;;5.30;81.57;100896.06;4980355;28;20055;-46
2024/03/07 09:45:18;;;;;;;24.05;9.32;;;;;;;5.25;80.81;100898.47;4978757;28;20054;-43
2024/03/07 09:47:48;;;;;;;;;;;;;;;5.23;80.68;100892.41;4986879;28;20165;-48
2024/03/07 09:50:25;;;;;;;33.90;10.90;;;;;;;5.28;81.07;100890.88;4983463;28;19922;-43
2024/03/07 09:52:52;;;;;;;23.38;8.98;;;;;;;5.27;81.18;100896.84;4980522;28;20058;-46
2024/03/07 09:55:23;;;;;;;31.90;10.73;;;;;;;5.31;80.34;100890.97;4986212;28;20046;-46
2024/03/07 09:57:55;;;;;;;36.80;11.40;;;;;;;5.33;81.52;100884.19;4977099;28;20078;-43
2024/03/07 10:00:25;;;;;;;36.60;12.07;;;;;;;5.35;81.48;100887.69;4986192;28;20042;-47
2024/03/07 10:05:37;;;;;;;38.03;10.93;;;;;;;5.36;81.02;100891.09;5069968;28;20126;-44
2024/03/07 10:08:06;;;;;;;37.22;10.02;;;;;;;5.44;81.06;100891.38;5025998;28;20055;-42
2024/03/07 10:10:34;;;;;;;35.45;12.75;;;;;;;5.43;81.25;100895.63;5011916;28;20060;-45
2024/03/07 10:13:02;;;;;;;34.45;12.63;;;;;;;5.43;80.51;100894.78;5009890;28;20653;-42
2024/03/07 10:15:31;;;;;;;42.13;12.40;;;;;;;5.46;80.42;100890.59;5010917;28;20053;-45
2024/03/07 10:17:58;;;;;;;38.30;13.13;;;;;;;5.43;80.98;100892.19;5015256;28;20058;-42
2024/03/07 10:20:26;;;;;;;42.72;14.63;;;;;;;5.47;80.59;100891.47;5016580;28;20050;-46
2024/03/07 10:22:53;;;;;;;53.70;15.45;;;;;;;5.47;80.69;100894.03;5007875;28;20054;-46
2024/03/07 10:25:24;;;;;;;39.90;11.43;;;;;;;5.50;80.59;100881.25;5015730;28;20060;-43
2024/03/07 10:27:51;;;;;;;44.05;13.18;;;;;;;5.56;80.92;100881.47;5015236;28;20423;-43
2024/03/07 10:30:21;;;;;;;49.08;16.70;;;;;;;5.61;81.79;100879.06;5012603;28;20057;-49
2024/03/07 10:32:55;;;;;;;44.13;15.77;;;;;;;5.64;81.26;100885.16;5014140;28;20056;-45
2024/03/07 10:35:24;;;;;;;46.05;16.08;;;;;;;5.71;80.88;100880.22;5030016;28;20125;-46
2024/03/07 10:37:54;;;;;;;43.28;11.77;;;;;;;5.69;80.24;100880.16;5010958;28;20113;-44
2024/03/07 10:40:22;;;;;;;33.83;12.70;;;;;;;5.65;80.46;100876.59;5009776;28;20079;-49
2024/03/07 10:42:52;;;;;;;45.60;15.50;;;;;;;5.72;81.27;100881.94;5018509;28;20045;-44
2024/03/07 10:45:21;;;;;;;48.78;16.48;;;;;;;5.70;80.67;100874.19;5012418;28;20046;-46
2024/03/07 10:47:54;;;;;;;36.33;9.70;;;;;;;5.70;81.01;100874.19;5011383;28;20426;-44
2024/03/07 10:50:39;;;;;;;45.63;11.85;;;;;;;5.69;81.09;100876.72;5037369;28;20557;-47
2024/03/07 10:58:48;;;;;;;58.75;17.88;;;;;;;5.76;81.00;100868.34;5034457;28;20769;-44
2024/03/07 11:01:18;;;;;;;50.97;16.42;;;;;;;5.73;80.97;100860.53;5019248;28;20050;-45
2024/03/07 11:03:45;;;;;;;45.17;15.13;;;;;;;5.77;80.63;100862.38;5009808;28;20054;-43
2024/03/07 11:06:15;;;;;;;50.22;16.63;;;;;;;5.82;80.63;100853.13;5013066;28;20104;-43
2024/03/07 11:08:43;;;;;;;59.83;18.58;;;;;;;5.88;81.50;100853.28;5013339;28;20092;-42
2024/03/07 11:11:12;;;;;;;59.55;17.52;;;;;;;5.90;80.41;100856.78;5003921;28;20054;-44
2024/03/07 11:13:42;;;;;;;64.80;19.60;;;;;;;5.91;80.96;100850.81;5011144;28;20049;-44
2024/03/07 11:16:11;;;;;;;55.60;17.02;;;;;;;5.94;81.07;100846.59;5008226;28;20050;-44
2024/03/07 11:18:37;;;;;;;62.40;19.17;;;;;;;5.98;80.32;100848.44;5004346;28;20392;-44
2024/03/07 11:21:07;;;;;;;57.90;17.00;;;;;;;5.98;81.28;100844.16;5006883;28;20069;-44
2024/03/07 11:23:38;;;;;;;72.00;19.40;;;;;;;6.04;81.61;100843.47;5007130;28;20057;-46
2024/03/07 11:26:08;;;;;;;64.93;19.33;;;;;;;6.08;79.88;100840.16;5008516;28;20057;-45
2024/03/07 11:28:37;;;;;;;62.28;18.00;;;;;;;6.11;81.57;100835.13;5005778;28;20507;-45
2024/03/07 11:34:14;;;;;;;69.85;19.13;;;;;;;6.21;80.71;100825.09;5042422;28;20965;-43